This is the latest recevied weather packets stored in our database for station/object HB9ZRH-10. If no packets are shown the sender has not sent any weather packets the latest 10 day(s).
| Time | Temp. | Humidity | Pressure | Rain* | Wind** | Luminosity | Snow |
|---|---|---|---|---|---|---|---|
| 1777790595 | 17.22° C | 44% | 1017.2 hPa | - | - | - | - |
| 1777790295 | 17.78° C | 43% | 1017.2 hPa | - | - | - | - |
| 1777789995 | 17.22° C | 43% | 1017.1 hPa | - | - | - | - |
| 1777789695 | 16.67° C | 43% | 1017 hPa | - | - | - | - |
| 1777789395 | 17.22° C | 43% | 1017.1 hPa | - | - | - | - |
| 1777789095 | 17.78° C | 42% | 1017 hPa | - | - | - | - |
| 1777788795 | 20° C | 40% | 1016.8 hPa | - | - | - | - |
| 1777788495 | 24.44° C | 37% | 1016.7 hPa | - | - | - | - |
| 1777788195 | 27.78° C | 35% | 1016.6 hPa | - | - | - | - |
| 1777787895 | 26.67° C | 36% | 1016.6 hPa | - | - | - | - |
| 1777787595 | 25.56° C | 37% | 1016.6 hPa | - | - | - | - |
| 1777787295 | 23.89° C | 38% | 1016.6 hPa | - | - | - | - |
| 1777786995 | 25.56° C | 36% | 1016.5 hPa | - | - | - | - |
| 1777786695 | 25.56° C | 37% | 1016.6 hPa | - | - | - | - |
| 1777786395 | 22.22° C | 39% | 1016.6 hPa | - | - | - | - |
| 1777786095 | 22.78° C | 39% | 1016.6 hPa | - | - | - | - |
| 1777785795 | 22.78° C | 39% | 1016.5 hPa | - | - | - | - |
| 1777785495 | 23.89° C | 37% | 1016.4 hPa | - | - | - | - |
| 1777785195 | 25° C | 37% | 1016.4 hPa | - | - | - | - |
| 1777784895 | 25.56° C | 37% | 1016.3 hPa | - | - | - | - |
| 1777784595 | 26.11° C | 36% | 1016.3 hPa | - | - | - | - |
| 1777784295 | 25.56° C | 36% | 1016.3 hPa | - | - | - | - |
| 1777783995 | 25.56° C | 36% | 1016.3 hPa | - | - | - | - |
| 1777783695 | 26.67° C | 36% | 1016.4 hPa | - | - | - | - |
| 1777783395 | 26.67° C | 36% | 1016.3 hPa | - | - | - | - |
* Rain since midnight (hover to see other rain measurements)
** Current wind speed in m/s (hover to see current wind gust speed)